sensor_id;sensor_type;location;lat;lon;timestamp;pressure;altitude;pressure_sealevel;temperature;humidity
54924;BME280;40825;52.270;20.984;2023-06-14T00:01:34;100743.80;;;12.41;99.72
54924;BME280;40825;52.270;20.984;2023-06-14T00:04:01;100745.07;;;12.40;99.63
54924;BME280;40825;52.270;20.984;2023-06-14T00:06:28;100744.28;;;12.39;99.39
54924;BME280;40825;52.270;20.984;2023-06-14T00:08:54;100736.94;;;12.38;99.35
54924;BME280;40825;52.270;20.984;2023-06-14T00:11:20;100742.23;;;12.37;99.50
54924;BME280;40825;52.270;20.984;2023-06-14T00:13:46;100742.10;;;12.35;99.75
54924;BME280;40825;52.270;20.984;2023-06-14T00:16:12;100740.16;;;12.33;99.91
54924;BME280;40825;52.270;20.984;2023-06-14T00:18:38;100738.62;;;12.33;99.83
54924;BME280;40825;52.270;20.984;2023-06-14T00:21:06;100738.92;;;12.33;99.71
54924;BME280;40825;52.270;20.984;2023-06-14T00:23:32;100734.19;;;12.34;99.89
54924;BME280;40825;52.270;20.984;2023-06-14T00:25:57;100732.00;;;12.33;100.00
54924;BME280;40825;52.270;20.984;2023-06-14T00:28:23;100729.08;;;12.32;99.96
54924;BME280;40825;52.270;20.984;2023-06-14T00:30:48;100725.23;;;12.33;99.98
54924;BME280;40825;52.270;20.984;2023-06-14T00:33:14;100725.65;;;12.33;99.97
54924;BME280;40825;52.270;20.984;2023-06-14T00:35:39;100727.76;;;12.33;99.98
54924;BME280;40825;52.270;20.984;2023-06-14T00:38:05;100728.66;;;12.33;99.84
54924;BME280;40825;52.270;20.984;2023-06-14T00:40:30;100726.90;;;12.30;99.97
54924;BME280;40825;52.270;20.984;2023-06-14T00:42:56;100727.15;;;12.29;99.94
54924;BME280;40825;52.270;20.984;2023-06-14T00:45:21;100721.02;;;12.30;99.99
54924;BME280;40825;52.270;20.984;2023-06-14T00:47:47;100719.30;;;12.31;99.95
54924;BME280;40825;52.270;20.984;2023-06-14T00:50:17;100716.01;;;12.31;99.97
54924;BME280;40825;52.270;20.984;2023-06-14T00:52:43;100716.80;;;12.32;100.00
54924;BME280;40825;52.270;20.984;2023-06-14T00:55:08;100716.80;;;12.33;100.00
54924;BME280;40825;52.270;20.984;2023-06-14T00:57:34;100715.02;;;12.35;100.00
54924;BME280;40825;52.270;20.984;2023-06-14T01:00:03;100718.01;;;12.35;99.65
54924;BME280;40825;52.270;20.984;2023-06-14T01:02:37;100719.92;;;12.33;99.87
54924;BME280;40825;52.270;20.984;2023-06-14T01:05:03;100721.98;;;12.33;100.00
54924;BME280;40825;52.270;20.984;2023-06-14T01:10:43;100718.39;;;12.35;100.00
54924;BME280;40825;52.270;20.984;2023-06-14T01:13:39;100716.00;;;12.36;99.90
54924;BME280;40825;52.270;20.984;2023-06-14T01:16:08;100721.86;;;12.33;99.94
54924;BME280;40825;52.270;20.984;2023-06-14T01:18:34;100721.65;;;12.30;100.00
54924;BME280;40825;52.270;20.984;2023-06-14T01:21:00;100721.66;;;12.32;100.00
54924;BME280;40825;52.270;20.984;2023-06-14T01:23:28;100721.38;;;12.34;100.00
54924;BME280;40825;52.270;20.984;2023-06-14T01:25:57;100720.69;;;12.35;100.00
54924;BME280;40825;52.270;20.984;2023-06-14T01:28:23;100723.77;;;12.38;100.00
54924;BME280;40825;52.270;20.984;2023-06-14T01:30:52;100720.06;;;12.39;100.00
54924;BME280;40825;52.270;20.984;2023-06-14T01:33:21;100718.77;;;12.39;100.00
54924;BME280;40825;52.270;20.984;2023-06-14T01:35:49;100717.63;;;12.40;100.00
54924;BME280;40825;52.270;20.984;2023-06-14T01:38:17;100714.30;;;12.41;100.00
54924;BME280;40825;52.270;20.984;2023-06-14T01:40:45;100718.06;;;12.42;100.00
54924;BME280;40825;52.270;20.984;2023-06-14T01:43:13;100712.30;;;12.43;100.00
54924;BME280;40825;52.270;20.984;2023-06-14T01:45:41;100714.82;;;12.44;100.00
54924;BME280;40825;52.270;20.984;2023-06-14T01:48:07;100712.32;;;12.46;100.00
54924;BME280;40825;52.270;20.984;2023-06-14T01:50:32;100710.57;;;12.49;100.00
54924;BME280;40825;52.270;20.984;2023-06-14T01:52:59;100706.64;;;12.52;100.00
54924;BME280;40825;52.270;20.984;2023-06-14T01:55:25;100706.02;;;12.54;100.00
54924;BME280;40825;52.270;20.984;2023-06-14T01:57:51;100701.71;;;12.56;100.00
54924;BME280;40825;52.270;20.984;2023-06-14T02:00:17;100706.40;;;12.54;100.00
54924;BME280;40825;52.270;20.984;2023-06-14T02:02:44;100704.24;;;12.51;100.00
54924;BME280;40825;52.270;20.984;2023-06-14T02:05:09;100699.94;;;12.50;100.00
54924;BME280;40825;52.270;20.984;2023-06-14T02:07:35;100696.52;;;12.49;100.00
54924;BME280;40825;52.270;20.984;2023-06-14T02:10:02;100689.76;;;12.48;100.00
54924;BME280;40825;52.270;20.984;2023-06-14T02:12:28;100686.84;;;12.50;100.00
54924;BME280;40825;52.270;20.984;2023-06-14T02:14:54;100691.70;;;12.50;100.00
54924;BME280;40825;52.270;20.984;2023-06-14T02:17:19;100697.63;;;12.48;100.00
54924;BME280;40825;52.270;20.984;2023-06-14T02:19:45;100703.95;;;12.45;100.00
54924;BME280;40825;52.270;20.984;2023-06-14T02:22:11;100704.98;;;12.44;100.00
54924;BME280;40825;52.270;20.984;2023-06-14T02:24:36;100707.59;;;12.46;100.00
54924;BME280;40825;52.270;20.984;2023-06-14T02:27:02;100705.95;;;12.48;100.00
54924;BME280;40825;52.270;20.984;2023-06-14T02:29:28;100703.55;;;12.49;100.00
54924;BME280;40825;52.270;20.984;2023-06-14T02:31:54;100701.67;;;12.52;100.00
54924;BME280;40825;52.270;20.984;2023-06-14T02:34:19;100697.73;;;12.53;100.00
54924;BME280;40825;52.270;20.984;2023-06-14T02:36:47;100698.47;;;12.53;100.00
54924;BME280;40825;52.270;20.984;2023-06-14T02:39:13;100694.89;;;12.53;100.00
54924;BME280;40825;52.270;20.984;2023-06-14T02:41:39;100693.94;;;12.52;100.00
54924;BME280;40825;52.270;20.984;2023-06-14T02:44:06;100696.91;;;12.53;100.00
54924;BME280;40825;52.270;20.984;2023-06-14T02:46:32;100697.45;;;12.54;100.00
54924;BME280;40825;52.270;20.984;2023-06-14T02:48:57;100694.33;;;12.55;100.00
54924;BME280;40825;52.270;20.984;2023-06-14T02:51:23;100690.79;;;12.56;100.00
54924;BME280;40825;52.270;20.984;2023-06-14T02:53:48;100690.80;;;12.59;100.00
54924;BME280;40825;52.270;20.984;2023-06-14T02:56:14;100690.19;;;12.60;100.00
54924;BME280;40825;52.270;20.984;2023-06-14T02:58:43;100688.27;;;12.62;100.00
54924;BME280;40825;52.270;20.984;2023-06-14T03:01:08;100686.42;;;12.63;100.00
54924;BME280;40825;52.270;20.984;2023-06-14T03:03:38;100685.45;;;12.64;100.00
54924;BME280;40825;52.270;20.984;2023-06-14T03:06:04;100687.17;;;12.63;100.00
54924;BME280;40825;52.270;20.984;2023-06-14T03:08:31;100687.63;;;12.64;100.00
54924;BME280;40825;52.270;20.984;2023-06-14T03:11:04;100691.34;;;12.64;100.00
54924;BME280;40825;52.270;20.984;2023-06-14T03:13:31;100692.73;;;12.64;100.00
54924;BME280;40825;52.270;20.984;2023-06-14T03:16:00;100691.17;;;12.65;100.00
54924;BME280;40825;52.270;20.984;2023-06-14T03:18:30;100691.36;;;12.67;100.00
54924;BME280;40825;52.270;20.984;2023-06-14T03:20:56;100690.36;;;12.69;100.00
54924;BME280;40825;52.270;20.984;2023-06-14T03:23:26;100689.42;;;12.68;100.00
54924;BME280;40825;52.270;20.984;2023-06-14T03:25:52;100694.29;;;12.69;100.00
54924;BME280;40825;52.270;20.984;2023-06-14T03:28:17;100689.38;;;12.70;100.00
54924;BME280;40825;52.270;20.984;2023-06-14T03:30:43;100689.77;;;12.72;100.00
54924;BME280;40825;52.270;20.984;2023-06-14T03:33:08;100687.27;;;12.75;100.00
54924;BME280;40825;52.270;20.984;2023-06-14T03:35:34;100689.34;;;12.77;100.00
54924;BME280;40825;52.270;20.984;2023-06-14T03:38:00;100686.22;;;12.81;100.00
54924;BME280;40825;52.270;20.984;2023-06-14T03:40:26;100682.15;;;12.82;100.00
54924;BME280;40825;52.270;20.984;2023-06-14T03:42:55;100683.02;;;12.82;100.00
54924;BME280;40825;52.270;20.984;2023-06-14T03:45:21;100682.06;;;12.81;100.00
54924;BME280;40825;52.270;20.984;2023-06-14T03:47:47;100678.26;;;12.78;100.00
54924;BME280;40825;52.270;20.984;2023-06-14T03:50:12;100679.58;;;12.79;100.00
54924;BME280;40825;52.270;20.984;2023-06-14T03:52:38;100682.79;;;12.78;100.00
54924;BME280;40825;52.270;20.984;2023-06-14T03:55:05;100680.27;;;12.77;100.00
54924;BME280;40825;52.270;20.984;2023-06-14T03:57:30;100678.58;;;12.77;100.00
54924;BME280;40825;52.270;20.984;2023-06-14T03:59:56;100684.19;;;12.78;100.00
54924;BME280;40825;52.270;20.984;2023-06-14T04:02:22;100681.20;;;12.79;100.00
54924;BME280;40825;52.270;20.984;2023-06-14T04:04:48;100685.81;;;12.82;100.00
54924;BME280;40825;52.270;20.984;2023-06-14T04:07:14;100691.16;;;12.86;100.00
54924;BME280;40825;52.270;20.984;2023-06-14T04:09:41;100687.91;;;12.91;100.00
54924;BME280;40825;52.270;20.984;2023-06-14T04:12:07;100690.99;;;12.96;100.00
54924;BME280;40825;52.270;20.984;2023-06-14T04:14:34;100688.58;;;13.01;100.00
54924;BME280;40825;52.270;20.984;2023-06-14T04:17:00;100689.92;;;13.07;100.00
54924;BME280;40825;52.270;20.984;2023-06-14T04:19:26;100693.70;;;13.11;100.00
54924;BME280;40825;52.270;20.984;2023-06-14T04:21:51;100694.69;;;13.12;100.00
54924;BME280;40825;52.270;20.984;2023-06-14T04:24:17;100694.89;;;13.12;100.00
54924;BME280;40825;52.270;20.984;2023-06-14T04:26:44;100696.27;;;13.12;100.00
54924;BME280;40825;52.270;20.984;2023-06-14T04:29:14;100697.20;;;13.12;100.00
54924;BME280;40825;52.270;20.984;2023-06-14T04:31:45;100697.70;;;13.12;100.00
54924;BME280;40825;52.270;20.984;2023-06-14T04:34:11;100694.15;;;13.12;100.00
54924;BME280;40825;52.270;20.984;2023-06-14T04:36:41;100689.29;;;13.12;100.00
54924;BME280;40825;52.270;20.984;2023-06-14T04:39:17;100689.38;;;13.14;100.00
54924;BME280;40825;52.270;20.984;2023-06-14T04:41:44;100690.65;;;13.16;100.00
54924;BME280;40825;52.270;20.984;2023-06-14T04:44:09;100684.35;;;13.16;100.00
54924;BME280;40825;52.270;20.984;2023-06-14T04:46:35;100678.70;;;13.17;100.00
54924;BME280;40825;52.270;20.984;2023-06-14T04:49:20;100680.48;;;13.19;100.00
54924;BME280;40825;52.270;20.984;2023-06-14T04:51:45;100682.46;;;13.22;100.00
54924;BME280;40825;52.270;20.984;2023-06-14T04:54:12;100678.72;;;13.25;100.00
54924;BME280;40825;52.270;20.984;2023-06-14T04:56:41;100678.41;;;13.29;100.00
54924;BME280;40825;52.270;20.984;2023-06-14T04:59:11;100683.13;;;13.35;100.00
54924;BME280;40825;52.270;20.984;2023-06-14T05:01:38;100687.60;;;13.38;100.00
54924;BME280;40825;52.270;20.984;2023-06-14T05:04:03;100688.66;;;13.38;100.00
54924;BME280;40825;52.270;20.984;2023-06-14T05:06:30;100693.86;;;13.38;100.00
54924;BME280;40825;52.270;20.984;2023-06-14T05:08:56;100700.05;;;13.38;100.00
54924;BME280;40825;52.270;20.984;2023-06-14T05:11:21;100701.95;;;13.40;100.00
54924;BME280;40825;52.270;20.984;2023-06-14T05:13:49;100699.98;;;13.43;100.00
54924;BME280;40825;52.270;20.984;2023-06-14T05:16:15;100703.71;;;13.45;100.00
54924;BME280;40825;52.270;20.984;2023-06-14T05:18:42;100700.77;;;13.47;100.00
54924;BME280;40825;52.270;20.984;2023-06-14T05:21:07;100699.27;;;13.47;100.00
54924;BME280;40825;52.270;20.984;2023-06-14T05:23:34;100702.41;;;13.48;100.00
54924;BME280;40825;52.270;20.984;2023-06-14T05:25:59;100706.46;;;13.48;100.00
54924;BME280;40825;52.270;20.984;2023-06-14T05:28:28;100710.38;;;13.53;100.00
54924;BME280;40825;52.270;20.984;2023-06-14T05:30:53;100713.65;;;13.58;100.00
54924;BME280;40825;52.270;20.984;2023-06-14T05:33:19;100711.55;;;13.60;100.00
54924;BME280;40825;52.270;20.984;2023-06-14T05:35:44;100709.58;;;13.61;100.00
54924;BME280;40825;52.270;20.984;2023-06-14T05:38:10;100707.61;;;13.64;100.00
54924;BME280;40825;52.270;20.984;2023-06-14T05:40:35;100708.23;;;13.68;100.00
54924;BME280;40825;52.270;20.984;2023-06-14T05:43:01;100709.10;;;13.72;100.00
54924;BME280;40825;52.270;20.984;2023-06-14T05:45:26;100709.64;;;13.74;100.00
54924;BME280;40825;52.270;20.984;2023-06-14T05:47:52;100710.96;;;13.77;100.00
54924;BME280;40825;52.270;20.984;2023-06-14T05:50:20;100709.77;;;13.79;100.00
54924;BME280;40825;52.270;20.984;2023-06-14T05:52:46;100711.18;;;13.83;100.00
54924;BME280;40825;52.270;20.984;2023-06-14T05:55:11;100712.79;;;13.87;100.00
54924;BME280;40825;52.270;20.984;2023-06-14T05:57:39;100710.19;;;13.93;100.00
54924;BME280;40825;52.270;20.984;2023-06-14T06:00:07;100709.75;;;13.98;100.00
54924;BME280;40825;52.270;20.984;2023-06-14T06:02:37;100716.06;;;14.02;100.00
54924;BME280;40825;52.270;20.984;2023-06-14T06:05:02;100716.93;;;14.07;100.00
54924;BME280;40825;52.270;20.984;2023-06-14T06:07:28;100717.05;;;14.11;100.00
54924;BME280;40825;52.270;20.984;2023-06-14T06:09:53;100719.98;;;14.13;100.00
54924;BME280;40825;52.270;20.984;2023-06-14T06:12:19;100721.10;;;14.13;100.00
54924;BME280;40825;52.270;20.984;2023-06-14T06:14:44;100718.00;;;14.11;100.00
54924;BME280;40825;52.270;20.984;2023-06-14T06:17:10;100718.96;;;14.11;100.00
54924;BME280;40825;52.270;20.984;2023-06-14T06:19:36;100709.23;;;14.15;100.00
54924;BME280;40825;52.270;20.984;2023-06-14T06:22:01;100710.20;;;14.23;100.00
54924;BME280;40825;52.270;20.984;2023-06-14T06:24:27;100710.40;;;14.28;100.00
54924;BME280;40825;52.270;20.984;2023-06-14T06:26:52;100716.50;;;14.34;100.00
54924;BME280;40825;52.270;20.984;2023-06-14T06:29:18;100719.39;;;14.38;100.00
54924;BME280;40825;52.270;20.984;2023-06-14T06:31:43;100718.68;;;14.40;100.00
54924;BME280;40825;52.270;20.984;2023-06-14T06:34:11;100720.62;;;14.42;100.00
54924;BME280;40825;52.270;20.984;2023-06-14T06:36:36;100720.67;;;14.41;100.00
54924;BME280;40825;52.270;20.984;2023-06-14T06:39:02;100722.48;;;14.42;100.00
54924;BME280;40825;52.270;20.984;2023-06-14T06:41:34;100726.36;;;14.48;100.00
54924;BME280;40825;52.270;20.984;2023-06-14T06:44:02;100731.89;;;14.58;100.00
54924;BME280;40825;52.270;20.984;2023-06-14T06:46:28;100737.50;;;14.64;100.00
54924;BME280;40825;52.270;20.984;2023-06-14T06:48:53;100738.98;;;14.69;100.00
54924;BME280;40825;52.270;20.984;2023-06-14T06:51:20;100732.08;;;14.73;100.00
54924;BME280;40825;52.270;20.984;2023-06-14T06:53:52;100725.92;;;14.74;100.00
54924;BME280;40825;52.270;20.984;2023-06-14T06:56:18;100728.15;;;14.78;100.00
54924;BME280;40825;52.270;20.984;2023-06-14T06:58:45;100733.85;;;14.80;100.00
54924;BME280;40825;52.270;20.984;2023-06-14T07:01:10;100729.80;;;14.80;100.00
54924;BME280;40825;52.270;20.984;2023-06-14T07:03:37;100725.06;;;14.78;100.00
54924;BME280;40825;52.270;20.984;2023-06-14T07:06:02;100727.66;;;14.78;100.00
54924;BME280;40825;52.270;20.984;2023-06-14T07:08:28;100728.20;;;14.78;100.00
54924;BME280;40825;52.270;20.984;2023-06-14T07:10:53;100726.99;;;14.78;100.00
54924;BME280;40825;52.270;20.984;2023-06-14T07:13:19;100730.23;;;14.80;100.00
54924;BME280;40825;52.270;20.984;2023-06-14T07:15:44;100728.23;;;14.81;100.00
54924;BME280;40825;52.270;20.984;2023-06-14T07:18:10;100728.26;;;14.85;100.00
54924;BME280;40825;52.270;20.984;2023-06-14T07:20:35;100728.56;;;14.92;100.00
54924;BME280;40825;52.270;20.984;2023-06-14T07:23:03;100728.67;;;14.99;100.00
54924;BME280;40825;52.270;20.984;2023-06-14T07:25:29;100731.65;;;15.08;100.00
54924;BME280;40825;52.270;20.984;2023-06-14T07:27:55;100737.52;;;15.21;100.00
54924;BME280;40825;52.270;20.984;2023-06-14T07:30:20;100735.49;;;15.32;100.00
54924;BME280;40825;52.270;20.984;2023-06-14T07:32:46;100738.17;;;15.39;100.00
54924;BME280;40825;52.270;20.984;2023-06-14T07:35:11;100733.84;;;15.46;100.00
54924;BME280;40825;52.270;20.984;2023-06-14T07:37:37;100733.30;;;15.51;100.00
54924;BME280;40825;52.270;20.984;2023-06-14T07:40:03;100735.23;;;15.56;100.00
54924;BME280;40825;52.270;20.984;2023-06-14T07:42:33;100733.62;;;15.63;100.00
54924;BME280;40825;52.270;20.984;2023-06-14T07:45:00;100738.77;;;15.71;99.77
54924;BME280;40825;52.270;20.984;2023-06-14T07:47:25;100740.13;;;15.75;99.86
54924;BME280;40825;52.270;20.984;2023-06-14T07:49:51;100742.90;;;15.80;99.48
54924;BME280;40825;52.270;20.984;2023-06-14T07:52:16;100745.89;;;15.86;98.99
54924;BME280;40825;52.270;20.984;2023-06-14T07:54:42;100742.91;;;15.95;99.27
54924;BME280;40825;52.270;20.984;2023-06-14T07:57:08;100746.62;;;16.04;99.16
54924;BME280;40825;52.270;20.984;2023-06-14T07:59:34;100749.52;;;16.10;98.71
54924;BME280;40825;52.270;20.984;2023-06-14T08:01:59;100746.49;;;16.15;98.69
54924;BME280;40825;52.270;20.984;2023-06-14T08:04:25;100746.66;;;16.15;97.43
54924;BME280;40825;52.270;20.984;2023-06-14T08:06:50;100747.31;;;16.12;97.67
54924;BME280;40825;52.270;20.984;2023-06-14T08:09:16;100747.83;;;16.11;97.54
54924;BME280;40825;52.270;20.984;2023-06-14T08:11:41;100749.46;;;16.17;98.12
54924;BME280;40825;52.270;20.984;2023-06-14T08:14:08;100750.36;;;16.30;97.79
54924;BME280;40825;52.270;20.984;2023-06-14T08:16:34;100745.96;;;16.39;98.18
54924;BME280;40825;52.270;20.984;2023-06-14T08:18:59;100746.19;;;16.50;97.92
54924;BME280;40825;52.270;20.984;2023-06-14T08:21:25;100751.55;;;16.58;97.51
54924;BME280;40825;52.270;20.984;2023-06-14T08:24:13;100755.38;;;16.67;97.68
54924;BME280;40825;52.270;20.984;2023-06-14T08:26:39;100752.99;;;16.72;97.31
54924;BME280;40825;52.270;20.984;2023-06-14T08:29:05;100757.91;;;16.76;96.73
54924;BME280;40825;52.270;20.984;2023-06-14T08:31:33;100757.00;;;16.76;96.76
54924;BME280;40825;52.270;20.984;2023-06-14T08:33:59;100760.27;;;16.73;96.83
54924;BME280;40825;52.270;20.984;2023-06-14T08:36:25;100759.34;;;16.72;96.57
54924;BME280;40825;52.270;20.984;2023-06-14T08:38:50;100761.26;;;16.74;96.10
54924;BME280;40825;52.270;20.984;2023-06-14T08:41:21;100759.61;;;16.77;96.02
54924;BME280;40825;52.270;20.984;2023-06-14T08:43:48;100753.55;;;16.78;95.91
54924;BME280;40825;52.270;20.984;2023-06-14T08:46:17;100749.14;;;16.82;96.03
54924;BME280;40825;52.270;20.984;2023-06-14T08:48:46;100750.43;;;16.93;95.71
54924;BME280;40825;52.270;20.984;2023-06-14T08:51:12;100743.69;;;17.00;94.15
54924;BME280;40825;52.270;20.984;2023-06-14T08:53:40;100740.30;;;17.10;93.09
54924;BME280;40825;52.270;20.984;2023-06-14T08:56:08;100746.88;;;17.39;91.89
54924;BME280;40825;52.270;20.984;2023-06-14T08:58:48;100744.23;;;17.72;92.02
54924;BME280;40825;52.270;20.984;2023-06-14T09:01:14;100741.11;;;18.11;92.69
54924;BME280;40825;52.270;20.984;2023-06-14T09:03:42;100740.09;;;18.43;92.08
54924;BME280;40825;52.270;20.984;2023-06-14T09:06:11;100739.06;;;18.58;91.86
54924;BME280;40825;52.270;20.984;2023-06-14T09:08:43;100741.39;;;18.68;90.65
54924;BME280;40825;52.270;20.984;2023-06-14T09:11:17;100746.84;;;18.80;89.89
54924;BME280;40825;52.270;20.984;2023-06-14T09:13:46;100744.77;;;18.92;90.32
54924;BME280;40825;52.270;20.984;2023-06-14T09:16:12;100745.36;;;19.07;90.00
54924;BME280;40825;52.270;20.984;2023-06-14T09:18:46;100740.75;;;19.19;89.56
54924;BME280;40825;52.270;20.984;2023-06-14T09:21:16;100747.29;;;19.27;88.53
54924;BME280;40825;52.270;20.984;2023-06-14T09:23:44;100751.35;;;19.33;87.80
54924;BME280;40825;52.270;20.984;2023-06-14T09:26:19;100755.02;;;19.47;87.44
54924;BME280;40825;52.270;20.984;2023-06-14T09:28:47;100749.84;;;19.56;87.45
54924;BME280;40825;52.270;20.984;2023-06-14T09:31:14;100748.86;;;19.62;86.15
54924;BME280;40825;52.270;20.984;2023-06-14T09:33:50;100748.31;;;19.47;85.06
54924;BME280;40825;52.270;20.984;2023-06-14T09:36:17;100744.86;;;19.25;85.92
54924;BME280;40825;52.270;20.984;2023-06-14T09:38:55;100749.90;;;19.07;86.34
54924;BME280;40825;52.270;20.984;2023-06-14T09:41:39;100749.75;;;18.87;85.08
54924;BME280;40825;52.270;20.984;2023-06-14T09:44:06;100754.15;;;18.70;85.55
54924;BME280;40825;52.270;20.984;2023-06-14T09:46:33;100755.69;;;18.61;85.38
54924;BME280;40825;52.270;20.984;2023-06-14T09:49:00;100753.45;;;18.58;84.89
54924;BME280;40825;52.270;20.984;2023-06-14T09:51:27;100759.77;;;18.65;84.48
54924;BME280;40825;52.270;20.984;2023-06-14T09:53:55;100756.98;;;18.81;83.94
54924;BME280;40825;52.270;20.984;2023-06-14T09:56:38;100758.56;;;18.97;83.49
54924;BME280;40825;52.270;20.984;2023-06-14T09:59:09;100758.84;;;19.12;83.13
54924;BME280;40825;52.270;20.984;2023-06-14T10:01:39;100759.41;;;19.21;82.42
54924;BME280;40825;52.270;20.984;2023-06-14T10:04:07;100756.67;;;19.34;82.42
54924;BME280;40825;52.270;20.984;2023-06-14T10:06:36;100755.52;;;19.44;82.12
54924;BME280;40825;52.270;20.984;2023-06-14T10:09:04;100756.06;;;19.56;81.56
54924;BME280;40825;52.270;20.984;2023-06-14T10:11:32;100753.12;;;19.71;81.53
54924;BME280;40825;52.270;20.984;2023-06-14T10:13:58;100752.86;;;19.81;80.16
54924;BME280;40825;52.270;20.984;2023-06-14T10:16:44;100751.80;;;19.78;77.76
54924;BME280;40825;52.270;20.984;2023-06-14T10:19:22;100752.40;;;19.81;78.90
54924;BME280;40825;52.270;20.984;2023-06-14T10:24:34;100746.19;;;19.90;76.58
54924;BME280;40825;52.270;20.984;2023-06-14T10:27:06;100749.45;;;19.87;77.23
54924;BME280;40825;52.270;20.984;2023-06-14T10:32:27;100753.16;;;20.00;77.30
54924;BME280;40825;52.270;20.984;2023-06-14T10:35:05;100747.75;;;20.04;77.00
54924;BME280;40825;52.270;20.984;2023-06-14T10:37:34;100749.28;;;20.01;76.22
54924;BME280;40825;52.270;20.984;2023-06-14T10:40:00;100748.40;;;19.92;75.46
54924;BME280;40825;52.270;20.984;2023-06-14T10:42:32;100748.23;;;19.89;74.76
54924;BME280;40825;52.270;20.984;2023-06-14T10:44:58;100743.22;;;19.90;73.38
54924;BME280;40825;52.270;20.984;2023-06-14T10:47:34;100736.86;;;19.87;71.21
54924;BME280;40825;52.270;20.984;2023-06-14T10:50:06;100741.20;;;19.86;71.67
54924;BME280;40825;52.270;20.984;2023-06-14T10:52:34;100740.42;;;19.85;72.47
54924;BME280;40825;52.270;20.984;2023-06-14T10:55:13;100738.96;;;19.85;71.68
54924;BME280;40825;52.270;20.984;2023-06-14T10:57:54;100744.81;;;19.75;69.89
54924;BME280;40825;52.270;20.984;2023-06-14T11:00:28;100741.37;;;19.71;70.40
54924;BME280;40825;52.270;20.984;2023-06-14T11:05:52;100739.67;;;19.61;71.26
54924;BME280;40825;52.270;20.984;2023-06-14T11:08:47;100738.42;;;19.48;69.01
54924;BME280;40825;52.270;20.984;2023-06-14T11:11:18;100733.23;;;19.31;68.53
54924;BME280;40825;52.270;20.984;2023-06-14T11:13:47;100736.81;;;19.23;67.77
54924;BME280;40825;52.270;20.984;2023-06-14T11:16:15;100735.02;;;19.25;67.31
54924;BME280;40825;52.270;20.984;2023-06-14T11:18:41;100730.73;;;19.28;68.13
54924;BME280;40825;52.270;20.984;2023-06-14T11:21:07;100728.73;;;19.34;68.77
54924;BME280;40825;52.270;20.984;2023-06-14T11:23:35;100725.21;;;19.37;68.30
54924;BME280;40825;52.270;20.984;2023-06-14T11:26:00;100722.02;;;19.34;67.77
54924;BME280;40825;52.270;20.984;2023-06-14T11:28:39;100722.59;;;19.41;68.21
54924;BME280;40825;52.270;20.984;2023-06-14T11:31:05;100719.02;;;19.51;67.79
54924;BME280;40825;52.270;20.984;2023-06-14T11:33:31;100716.19;;;19.66;68.61
54924;BME280;40825;52.270;20.984;2023-06-14T11:35:56;100723.17;;;19.81;68.02
54924;BME280;40825;52.270;20.984;2023-06-14T11:38:22;100724.81;;;19.97;66.51
54924;BME280;40825;52.270;20.984;2023-06-14T11:40:48;100725.93;;;20.13;66.49
54924;BME280;40825;52.270;20.984;2023-06-14T11:43:13;100721.08;;;20.17;65.03
54924;BME280;40825;52.270;20.984;2023-06-14T11:45:39;100727.35;;;20.21;66.46
54924;BME280;40825;52.270;20.984;2023-06-14T11:48:06;100727.68;;;20.20;65.46
54924;BME280;40825;52.270;20.984;2023-06-14T11:50:31;100726.69;;;20.13;66.18
54924;BME280;40825;52.270;20.984;2023-06-14T11:53:01;100725.47;;;20.10;63.41
54924;BME280;40825;52.270;20.984;2023-06-14T11:55:39;100724.16;;;20.02;62.83
54924;BME280;40825;52.270;20.984;2023-06-14T11:58:06;100719.31;;;19.98;61.91
54924;BME280;40825;52.270;20.984;2023-06-14T12:00:32;100719.01;;;19.99;61.77
54924;BME280;40825;52.270;20.984;2023-06-14T12:02:58;100720.85;;;19.99;60.06
54924;BME280;40825;52.270;20.984;2023-06-14T12:05:25;100718.84;;;20.02;61.39
54924;BME280;40825;52.270;20.984;2023-06-14T12:07:58;100720.26;;;20.10;60.81
54924;BME280;40825;52.270;20.984;2023-06-14T12:10:25;100721.00;;;20.23;61.02
54924;BME280;40825;52.270;20.984;2023-06-14T12:12:56;100716.14;;;20.29;59.26
54924;BME280;40825;52.270;20.984;2023-06-14T12:15:22;100718.52;;;20.27;58.35
54924;BME280;40825;52.270;20.984;2023-06-14T12:17:48;100714.09;;;20.22;57.79
54924;BME280;40825;52.270;20.984;2023-06-14T12:20:14;100718.76;;;20.11;56.44
54924;BME280;40825;52.270;20.984;2023-06-14T12:23:07;100720.34;;;19.98;57.26
54924;BME280;40825;52.270;20.984;2023-06-14T12:25:35;100717.36;;;19.83;56.87
54924;BME280;40825;52.270;20.984;2023-06-14T12:28:08;100716.27;;;19.72;57.30
54924;BME280;40825;52.270;20.984;2023-06-14T12:30:36;100714.97;;;19.61;58.00
54924;BME280;40825;52.270;20.984;2023-06-14T12:33:03;100712.16;;;19.45;58.26
54924;BME280;40825;52.270;20.984;2023-06-14T12:35:29;100714.70;;;19.39;59.24
54924;BME280;40825;52.270;20.984;2023-06-14T12:37:55;100716.60;;;19.42;58.80
54924;BME280;40825;52.270;20.984;2023-06-14T12:40:21;100716.77;;;19.48;58.79
54924;BME280;40825;52.270;20.984;2023-06-14T12:42:47;100713.52;;;19.39;58.06
54924;BME280;40825;52.270;20.984;2023-06-14T12:45:12;100707.16;;;19.35;58.74
54924;BME280;40825;52.270;20.984;2023-06-14T12:47:38;100708.23;;;19.44;59.19
54924;BME280;40825;52.270;20.984;2023-06-14T12:50:05;100704.38;;;19.58;58.12